CST,Max TemperatureF,Mean TemperatureF,Min TemperatureF,Max Dew PointF,MeanDew PointF,Min DewpointF,Max Humidity, Mean Humidity, Min Humidity, Max Sea Level PressureIn, Mean Sea Level PressureIn, Min Sea Level PressureIn, Max VisibilityMiles, Mean VisibilityMiles, Min VisibilityMiles, Max Wind SpeedMPH, Mean Wind SpeedMPH, Max Gust SpeedMPH,PrecipitationIn, CloudCover, Events, WindDirDegrees
2012-1-1,50,42,35,34,24,16,65,49,28,30.53,30.39,30.05,10,10,10,28,15,36,0.00,1,,307
2012-1-2,39,31,23,19,9,3,59,40,24,30.70,30.60,30.55,10,10,10,18,11,24,0.00,0,,311
2012-1-3,48,32,15,18,12,3,73,45,25,30.54,30.38,30.18,10,10,10,21,6,26,0.00,0,,156
2012-1-4,57,45,33,30,23,18,56,45,33,30.30,30.23,30.15,10,10,10,16,9,21,0.00,0,,260
2012-1-5,64,46,28,30,25,19,75,47,26,30.29,30.17,30.05,10,10,10,17,7,22,0.00,0,,189
2012-1-6,66,52,39,46,37,27,70,57,46,30.00,29.92,29.84,10,10,10,20,11,26,0.00,0,,184
2012-1-7,55,47,39,39,27,23,81,47,29,30.12,30.06,29.97,10,10,10,15,9,23,0.00,2,,38
2012-1-8,48,46,44,28,26,25,53,46,40,30.21,30.15,30.10,10,10,10,12,7,16,0.00,8,,62
2012-1-9,53,42,30,30,26,21,80,54,28,30.25,30.19,30.12,10,10,10,12,5,,0.00,1,,3
2012-1-10,44,40,37,37,29,23,87,64,49,30.12,29.96,29.78,10,9,3,10,5,20,0.02,7,,60
2012-1-11,57,45,33,39,35,30,93,78,44,29.81,29.71,29.66,10,5,0,29,4,34,0.00,5,,283
2012-1-12,26,22,19,21,12,7,80,61,50,30.05,30.01,29.93,10,10,4,25,19,37,0.00,8,,294
2012-1-13,41,29,17,9,4,1,58,41,25,30.21,30.14,30.08,10,10,10,13,6,,0.00,0,,252
2012-1-14,48,39,30,27,21,12,64,48,39,30.26,30.16,30.04,10,10,10,20,11,26,0.00,0,,265
2012-1-15,57,42,28,28,25,19,74,50,33,30.27,30.17,30.04,10,10,10,24,10,30,0.00,0,,135
2012-1-16,66,60,53,55,50,37,77,68,51,29.99,29.87,29.78,10,10,10,31,21,37,0.00,7,,186
2012-1-17,64,44,23,55,24,12,77,60,41,30.38,30.16,29.76,10,10,10,26,16,40,0.00,1,,312
2012-1-18,44,30,15,19,15,10,80,57,29,30.36,30.22,30.04,10,10,10,14,5,17,0.00,0,,163
2012-1-19,55,42,28,34,25,18,64,54,41,29.97,29.90,29.85,10,10,10,13,6,,0.00,0,,65
2012-1-20,60,46,32,50,36,25,87,75,63,29.93,29.79,29.67,10,9,4,21,8,26,0.00,4,,87
2012-1-21,44,32,19,27,20,12,80,65,46,30.13,30.05,29.93,10,9,4,17,10,21,0.00,1,,35
2012-1-22,60,51,42,50,42,30,82,72,31,29.82,29.65,29.49,10,9,5,34,16,39,0.00,6,,173
2012-1-23,53,43,33,30,27,21,81,55,28,30.05,29.98,29.81,10,10,10,25,14,38,0.00,2,,264
2012-1-24,64,47,30,27,22,19,69,43,19,30.20,30.13,30.09,10,10,10,14,7,18,0.00,0,,99
2012-1-25,46,42,39,39,37,27,93,84,46,30.13,30.02,29.89,10,8,2,15,8,24,0.01,7,,60
2012-1-26,51,45,39,39,35,21,87,73,38,29.94,29.88,29.84,10,9,4,18,8,23,0.00,5,,339
2012-1-27,55,42,28,30,25,19,80,54,33,30.00,29.95,29.86,10,10,10,18,5,25,0.00,1,,144
2012-1-28,46,36,26,27,19,14,69,51,27,30.47,30.37,30.20,10,10,10,21,10,28,0.00,0,,295
2012-1-29,57,44,30,27,21,16,60,45,28,30.37,30.32,30.25,10,10,10,21,9,26,0.00,0,,197
2012-1-30,64,52,39,43,32,23,56,49,41,30.23,30.14,30.03,10,10,10,25,13,32,0.00,0,,177
2012-1-31,64,58,53,52,49,43,88,72,59,30.05,30.01,29.96,10,10,8,24,18,34,0.00,7,,183